Terminal Aerodrome Forecast
Issued by NWS Huntsville, AL

Home | Current Version | Previous Version | Text Only | Print | Product List | Glossary On
Versions: 1 2 3 4 5 6 7 8 9 10 11 12 13 14 15 16 17 18 19 20 21 22 23 24 25 26 27 28 29 30 31 32 33 34 35 36
000
FTUS44 KHUN 222324
TAFHSV
TAF
KHSV 222324Z 2300/2324 VRB03KT P6SM VCTS SCT035CB SCT250
     FM230100 VRB03KT P6SM SCT250
     FM231800 18005KT P6SM VCSH BKN050
      TEMPO 2320/2324 5SM -TSRA BR BKN025CB=

USA.gov is the U.S. government's official web portal to all federal, state and local government web resources and services.